Omro, Wisconsin
Current Conditions -  °F | °C
As of 1:53 PM on Sunday 21 Dec 2014 (Local Time) from KOSH Reporting Station
Haze Haze  
Wind Chill: 27°   Ceiling: 1100
Heat Index: 35°   Visibility: 4mi
Dew Point: 31°   Wind: 12mph
Humidity: 85%   Direction: 180°S
Pressure: 30.01"   Gusts: NA
Location:  44.04°N, 88.74°W
Report Text: KOSH 211953Z 18010KT 4SM BR OVC011 02/M01 A3001 RMK AO2 SLP176 T00171006
Loading
Personal Weather Stations






























Interactive Weather Map New forecast layout! Learn more

10-Day Weather Forecast

Advertisements
Track Severe Weather on mobile